Tiempo atmosférico en la estación meteorológica de Coruña Del Conde, Burgos (945 m.)



Fecha
DESCASC
Temp. máxima en grados centígrados (hora)
DESCASC
Temp. mínima en grados centígrados (hora)
DESCASC
Temp. media en grados centígrados
DESCASC
Racha de viento máxima en m/sg (hora)
DESCASC
Velocidad máxima media en intervalos de 10 minutos(hora)
DESCASC
Precipitaciones diarias en mm
DESCASC
Precipitaciones de 00:00 a 06:00 en mm
DESCASC
Precipitaciones de 06:00 a 12:00 en mm
DESCASC
Precipitaciones de 12:00 a 18:00 en mm
DESCASC
Precipitaciones de 18:00 a 24:00 en mm
DESCASC
11-12-2019 5.8 (17:00) 1 (00:30) 3.4 10 (17:20) 5.83 (17:20) 4.4 0 4.4 0 0
10-12-2019 8.8 (15:50) -1.6 (07:20) 3.6 5.28 (01:20) 3.33 (01:00) 0 0 0 0 0
09-12-2019 7.6 (15:30) 2.2 (21:20) 4.9 8.06 (09:40) 5 (11:10) 0 0 0 0 0
08-12-2019 6.5 (23:20) -0.6 (-00:0) 2.9 4.17 (23:10) 2.22 (23:10) 3 0 0.2 2.2 0.6
07-12-2019 10.5 (15:20) -1.1 (-00:0) 4.7 4.44 (15:30) 2.78 (18:30) 0 0 0 0 0
06-12-2019 10.6 (15:30) 1.4 (00:00) 6 7.78 (11:30) 4.72 (11:30) 0 0 0 0 0
05-12-2019 11.7 (15:50) 2.5 (00:00) 7.1 7.22 (15:30) 3.89 (15:30) 0 0 0 0 0
04-12-2019 11 (16:30) 0.1 (00:00) 5.6 6.11 (18:10) 3.89 (18:10) 0 0 0 0 0
03-12-2019 6.5 (15:40) -3.9 (-00:0) 1.3 9.17 (16:50) 5.56 (16:50) 0 0 0 0 0
02-12-2019 9.8 (14:50) -0.6 (-00:0) 4.6 8.61 (16:10) 5.28 (13:50) 0 0 0 0 0
01-12-2019 8.2 (12:50) 3.2 (00:00) 5.7 6.39 (23:30) 4.17 (23:30) 0.4 0 0 0.2 0.2
30-11-2019 12.7 (14:40) 3.7 (00:00) 8.2 16.11 (14:40) 7.22 (14:50) 12.4 2.2 0.2 9.4 0.6
29-11-2019 12.6 (15:40) 8.3 (00:00) 10.5 8.33 (00:50) 4.17 (01:10) 0.4 0 0.4 0 0
28-11-2019 10.8 (13:20) 7.5 (00:00) 9.2 12.5 (01:20) 7.78 (01:00) 0.6 0 0.4 0 0.2
27-11-2019 9.7 (14:00) 6.5 (00:00) 8.1 12.5 (03:20) 8.06 (03:30) 1.6 0.4 0 0.8 0.4
26-11-2019 14.3 (15:40) 7.9 (00:00) 11.1 18.33 (19:50) 10.28 (19:50) 3.8 0 1.4 0.2 2.2
25-11-2019 11.8 (13:50) 5.8 (00:00) 8.8 10.28 (04:30) 5.83 (04:40) 2.4 2.4 0 0 0
24-11-2019 6.6 (14:10) 2.1 (00:00) 4.3 8.33 (07:10) 4.17 (14:10) 0.6 0 0 0 0.6
23-11-2019 8.2 (15:20) 2.7 (00:00) 5.4 16.11 (11:40) 9.44 (11:50) 2.4 2.4 0 0 0
22-11-2019 11.2 (17:10) 3.7 (00:00) 7.4 17.78 (17:20) 8.89 (17:20) 6.8 0.6 3.4 1.8 1
21-11-2019 7.4 (16:00) 3.5 (00:00) 5.5 6.94 (13:00) 3.89 (13:00) 1 0 1 0 0
20-11-2019 6.9 (13:30) -0.8 (-00:0) 3.1 6.67 (10:30) 4.44 (10:30) 2.4 0 0 0.8 1.6
19-11-2019 6.8 (14:20) -2.7 (-00:0) 2.1 5.83 (16:00) 3.61 (15:00) 0 0 0 0 0
18-11-2019 6.5 (16:30) -0.2 (00:00) 3.1 10.83 (13:00) 7.22 (13:00) 0 0 0 0 0
17-11-2019 6.6 (16:40) -0.3 (00:00) 3.1 9.17 (14:30) 5 (14:20) 5.2 0 2.2 3 0
16-11-2019 5.2 (15:50) -0.9 (-00:0) 2.1 8.89 (15:50) 5 (15:00) 0 0 0 0 0
15-11-2019 5 (15:00) 0.4 (00:00) 2.7 12.22 (16:40) 7.22 (13:50) 3.6 0.2 1 0.6 1.8

Gráficas

Temp. máximas Temp. mínimas Temp. medias Precipitaciones Rachas de viento máximas Velocidades máximas media en intervalos de 10 minutos

Datos horarios

Fecha y hora oficial Temperatura (ºC) Velocidad del viento (km/h) Dirección del viento Racha (km/h) Dirección de racha Precipitación (mm) Presión (hPa) Tendencia (hPa) Humedad (%)
2019-12-14 23:00:00 7.9 11 Sudoeste 21 Sudoeste 0 -- -- 82
2019-12-14 22:00:00 7.6 7 Sudoeste 13 Sudoeste 0 -- -- 86
2019-12-14 21:00:00 7.6 4 Sudoeste 15 Sudoeste 0 -- -- 88
2019-12-14 20:00:00 7.8 7 Sudoeste 14 Sudoeste 0 -- -- 86
2019-12-14 19:00:00 8.2 11 Oeste 28 Sudoeste 0 -- -- 85
2019-12-14 18:00:00 8.6 12 Sudoeste 23 Sudoeste 0 -- -- 82
2019-12-14 17:00:00 8.9 10 Sudoeste 24 Oeste 0 -- -- 81
2019-12-14 16:00:00 9 15 Sudoeste 31 Sudoeste 0 -- -- 80
2019-12-14 15:00:00 9.2 17 Oeste 31 Sudoeste 0 -- -- 76
2019-12-14 14:00:00 8.6 13 Oeste 32 Sudoeste 0 -- -- 78
2019-12-14 13:00:00 8.8 14 Sudoeste 29 Oeste 0 -- -- 77
2019-12-14 12:00:00 8 12 Sudoeste 26 Oeste 0 -- -- 79
2019-12-14 11:00:00 7.5 12 Sudoeste 27 Sudoeste 0 -- -- 81
2019-12-14 10:00:00 7.3 14 Oeste 26 Oeste 0 -- -- 82
2019-12-14 09:00:00 7.1 13 Oeste 23 Oeste 0 -- -- 84
2019-12-14 08:00:00 7.1 13 Oeste 27 Oeste 0 -- -- 85
2019-12-14 07:00:00 7.2 12 Oeste 30 Sudoeste 0 -- -- 86
2019-12-14 06:00:00 7.3 15 Oeste 27 Sudoeste 0 -- -- 87
2019-12-14 05:00:00 7.2 14 Sudoeste 30 Oeste 0 -- -- 89
2019-12-14 04:00:00 7.4 15 Oeste 33 Oeste 0 -- -- 87
2019-12-14 03:00:00 7.6 14 Oeste 33 Oeste 0 -- -- 86
2019-12-14 02:00:00 7.9 20 Oeste 33 Oeste 0 -- -- 85
2019-12-14 01:00:00 8.3 13 Oeste 45 Oeste 0 -- -- 87
2019-12-14 00:00:00 8.6 20 Oeste 41 Oeste 0 -- -- 87
2019-12-13 23:00:00 8.8 21 Oeste 40 Oeste 0 -- -- 87
2019-12-13 22:00:00 9 19 Oeste 41 Oeste 0 -- -- 88
2019-12-13 21:00:00 9.2 24 Oeste 50 Oeste 0 -- -- 89
2019-12-13 20:00:00 9.5 23 Oeste 41 Oeste 0 -- -- 87
2019-12-13 19:00:00 9.9 26 Oeste 46 Oeste 0 -- -- 86
2019-12-13 18:00:00 10.4 29 Oeste 54 Oeste 0 -- -- 85
2019-12-13 17:00:00 10.9 27 Oeste 52 Oeste 0 -- -- 84
2019-12-13 16:00:00 11.4 24 Oeste 51 Oeste 0 -- -- 82
2019-12-13 15:00:00 11.7 31 Oeste 57 Oeste 0 -- -- 82
2019-12-13 14:00:00 11.1 25 Oeste 48 Oeste 0 -- -- 83
2019-12-13 13:00:00 10.3 33 Oeste 51 Oeste 0 -- -- 85
2019-12-13 12:00:00 9.5 27 Oeste 54 Oeste 0 -- -- 87
2019-12-13 11:00:00 9.2 33 Oeste 54 Oeste 0 -- -- 86
2019-12-13 10:00:00 8.6 31 Oeste 61 Oeste 0 -- -- 87
2019-12-13 09:00:00 8.7 32 Oeste 67 Oeste 0 -- -- 88
2019-12-13 08:00:00 8.9 33 Oeste 57 Oeste 0.2 -- -- 89
2019-12-13 07:00:00 9.1 29 Oeste 50 Sudoeste 0 -- -- 90
2019-12-13 06:00:00 9.2 28 Oeste 57 Sudoeste 0 -- -- 92
2019-12-13 05:00:00 9 28 Oeste 44 Sudoeste 0 -- -- 96
2019-12-13 04:00:00 9.1 29 Oeste 49 Oeste 0 -- -- 95
2019-12-13 03:00:00 9.4 32 Oeste 56 Sudoeste 0 -- -- 93
2019-12-13 02:00:00 9.2 27 Oeste 49 Oeste 0 -- -- 93
2019-12-13 01:00:00 9.1 27 Oeste 52 Oeste 0.2 -- -- 94
2019-12-13 00:00:00 8.9 25 Oeste 48 Oeste 0 -- -- 95
2019-12-12 23:00:00 8.6 27 Oeste 46 Oeste 0 -- -- 95
2019-12-12 22:00:00 8.2 27 Oeste 47 Oeste 0 -- -- 96
2019-12-12 21:00:00 7.6 25 Oeste 45 Oeste 0.4 -- -- 97
2019-12-12 20:00:00 7.1 25 Oeste 46 Oeste 0.2 -- -- 97
2019-12-12 19:00:00 6.7 27 Oeste 50 Oeste 0.2 -- -- 97
2019-12-12 18:00:00 6.1 28 Oeste 54 Oeste 0.4 -- -- 97
2019-12-12 17:00:00 5.7 30 Oeste 49 Sudoeste 0.4 -- -- 97
2019-12-12 16:00:00 5.4 30 Oeste 48 Oeste 0.6 -- -- 97
2019-12-12 15:00:00 4.9 19 Oeste 44 Sudoeste 1.2 -- -- 96
2019-12-12 14:00:00 4.7 25 Oeste 44 Oeste 1.6 -- -- 96
2019-12-12 13:00:00 4.5 22 Sudoeste 45 Sudoeste 1 -- -- 96
2019-12-12 12:00:00 4.4 21 Sudoeste 37 Sudoeste 0.6 -- -- 96
2019-12-12 11:00:00 4.1 19 Sudoeste 35 Oeste 1 -- -- 96
2019-12-12 10:00:00 3.6 20 Sudoeste 35 Sudoeste 0.4 -- -- 96
2019-12-12 09:00:00 3.4 16 Sudoeste 33 Sudoeste 0 -- -- 95
2019-12-12 08:00:00 3.1 15 Oeste 26 Oeste 0 -- -- 94
2019-12-12 07:00:00 2.8 13 Oeste 29 Oeste 0 -- -- 95
2019-12-12 06:00:00 2.5 17 Oeste 31 Oeste 0 -- -- 95
2019-12-12 05:00:00 2.5 15 Oeste 31 Oeste 0 -- -- 95
2019-12-12 04:00:00 2.4 13 Oeste 29 Oeste 0 -- -- 94
2019-12-12 03:00:00 2.3 13 Oeste 28 Sudoeste 0 -- -- 94
2019-12-12 02:00:00 2.2 14 Oeste 29 Oeste 0 -- -- 93
2019-12-12 01:00:00 2.1 10 Oeste 26 Sudoeste 0 -- -- 93
2019-12-12 00:00:00 1.9 13 Oeste 25 Oeste 0 -- -- 91
2019-12-11 23:00:00 1.6 12 Oeste 21 Oeste 0 -- -- 89
2019-12-11 22:00:00 2.2 14 Oeste 32 Oeste 0 -- -- 85
2019-12-11 21:00:00 2.5 14 Oeste 25 Oeste 0 -- -- 83
2019-12-11 20:00:00 1.5 5 Noroeste 19 Oeste 0 -- -- 85
2019-12-11 19:00:00 2.8 10 Oeste 24 Noroeste 0 -- -- 81
2019-12-11 18:00:00 3.9 12 Oeste 36 Oeste 0 -- -- 80
2019-12-11 17:00:00 5.8 14 Oeste 32 Oeste 0 -- -- 79
2019-12-11 16:00:00 5.1 9 Noroeste 25 Noroeste 0 -- -- 88
2019-12-11 15:00:00 4.3 15 Oeste 29 Oeste 0 -- -- 92
2019-12-11 14:00:00 3.8 17 Noroeste 28 Oeste 0 -- -- 96
2019-12-11 13:00:00 3.3 18 Oeste 30 Oeste 0 -- -- 96
2019-12-11 12:00:00 2.9 14 Oeste 25 Oeste 0.2 -- -- 96
2019-12-11 11:00:00 2.6 8 Oeste 18 Oeste 0.6 -- -- 95
2019-12-11 10:00:00 2.6 3 Sudoeste 8 Noroeste 1.8 -- -- 93
2019-12-11 09:00:00 2.9 4 Norte 15 Noroeste 1.8 -- -- 90
2019-12-11 08:00:00 4.5 7 Oeste 20 Oeste 0 -- -- 71
2019-12-11 07:00:00 3.8 4 Norte 8 Noroeste 0 -- -- 82
2019-12-11 06:00:00 3.8 0 Calma 7 Norte 0 -- -- 79
2019-12-11 05:00:00 3.2 3 Norte 5 Norte 0 -- -- 85
2019-12-11 04:00:00 2.9 2 Norte 5 Norte 0 -- -- 85
2019-12-11 03:00:00 2.5 3 Norte 8 Nordeste 0 -- -- 89
2019-12-11 02:00:00 1.9 4 Norte 8 Nordeste 0 -- -- 90
2019-12-11 01:00:00 1.7 4 Nordeste 7 Nordeste 0 -- -- 92
2019-12-11 00:00:00 1.8 4 Este 6 Sudeste 0 -- -- 88
2019-12-10 23:00:00 2.9 3 Nordeste 5 Nordeste 0 -- -- 86
2019-12-10 22:00:00 3.4 3 Norte 5 Norte 0 -- -- 85
2019-12-10 21:00:00 3.8 4 Norte 5 Norte 0 -- -- 86
2019-12-10 20:00:00 4.2 3 Norte 6 Norte 0 -- -- 84
2019-12-10 19:00:00 4.6 5 Norte 8 Noroeste 0 -- -- 82
2019-12-10 18:00:00 5.8 4 Noroeste 8 Noroeste 0 -- -- 76
2019-12-10 17:00:00 7.2 5 Noroeste 10 Noroeste 0 -- -- 73
2019-12-10 16:00:00 8.6 6 Noroeste 14 Noroeste 0 -- -- 69
2019-12-10 15:00:00 8.6 8 Oeste 15 Oeste 0 -- -- 70
2019-12-10 14:00:00 7.2 9 Oeste 17 Oeste 0 -- -- 77
2019-12-10 13:00:00 5.6 6 Oeste 14 Oeste 0 -- -- 90
2019-12-10 12:00:00 4 6 Noroeste 10 Oeste 0 -- -- 99
2019-12-10 11:00:00 1.5 0 Calma 3 Sudeste 0 -- -- 99
2019-12-10 10:00:00 -0.9 3 Sur 5 Sur 0 -- -- 98
2019-12-10 09:00:00 -1 0 Calma 7 Norte 0 -- -- 98
2019-12-10 08:00:00 -0.8 4 Norte 6 Norte 0 -- -- 98
2019-12-10 07:00:00 -1.3 3 Norte 6 Noroeste 0 -- -- 97
2019-12-10 06:00:00 -0.4 2 Noroeste 6 Oeste 0 -- -- 97
2019-12-10 05:00:00 -1.5 3 Sudeste 5 Nordeste 0 -- -- 96
2019-12-10 04:00:00 -0.2 2 Noroeste 11 Noroeste 0 -- -- 96
2019-12-10 03:00:00 0.4 0 Calma 14 Oeste 0 -- -- 95
2019-12-10 02:00:00 1.2 9 Oeste 19 Oeste 0 -- -- 95
2019-12-10 01:00:00 1.6 12 Oeste 18 Oeste 0 -- -- 93
2019-12-10 00:00:00 2.8 6 Noroeste 14 Noroeste 0 -- -- 88
2019-12-09 23:00:00 2.5 0 Calma 17 Noroeste 0 -- -- 90
2019-12-09 22:00:00 2.8 9 Oeste 17 Oeste 0 -- -- 90
2019-12-09 21:00:00 2.3 4 Oeste 8 Oeste 0 -- -- 90
2019-12-09 20:00:00 2.7 5 Noroeste 10 Oeste 0 -- -- 89
2019-12-09 19:00:00 4.1 4 Oeste 14 Noroeste 0 -- -- 85
2019-12-09 18:00:00 5.3 9 Noroeste 21 Noroeste 0 -- -- 80
2019-12-09 17:00:00 6.6 12 Oeste 21 Oeste 0 -- -- 77
2019-12-09 16:00:00 7.4 14 Noroeste 25 Oeste 0 -- -- 73
2019-12-09 15:00:00 7.4 15 Oeste 21 Oeste 0 -- -- 71
2019-12-09 14:00:00 6.8 13 Oeste 26 Oeste 0 -- -- 76
2019-12-09 13:00:00 6.5 14 Oeste 26 Oeste 0 -- -- 76
2019-12-09 12:00:00 5.7 15 Noroeste 26 Noroeste 0 -- -- 85
2019-12-09 11:00:00 4.6 13 Noroeste 25 Noroeste 0 -- -- 90
2019-12-09 10:00:00 4.4 15 Noroeste 29 Oeste 0 -- -- 94
2019-12-09 09:00:00 4.4 10 Oeste 23 Oeste 0 -- -- 95
2019-12-09 08:00:00 4.2 7 Oeste 19 Oeste 0 -- -- 96
2019-12-09 07:00:00 3.8 6 Noroeste 26 Oeste 0 -- -- 95
2019-12-09 06:00:00 4.2 16 Oeste 26 Oeste 0 -- -- 93
2019-12-09 05:00:00 4.9 15 Oeste 24 Oeste 0 -- -- 95
2019-12-09 04:00:00 5 10 Oeste 19 Noroeste 0 -- -- 96
2019-12-09 03:00:00 5.1 6 Noroeste 12 Noroeste 0 -- -- 97
2019-12-09 02:00:00 5.4 6 Oeste 18 Noroeste 0 -- -- 97
2019-12-09 01:00:00 5.7 9 Oeste 17 Oeste 0 -- -- 98
2019-12-09 00:00:00 6.3 8 Oeste 15 Oeste 0 -- -- 98
2019-12-08 23:00:00 6.4 5 Oeste 10 Oeste 0 -- -- 98
2019-12-08 22:00:00 6.1 3 Noroeste 10 Oeste 0 -- -- 98
2019-12-08 21:00:00 6.1 3 Noroeste 4 Oeste 0.2 -- -- 98
2019-12-08 20:00:00 5.9 3 Norte 5 Norte 0.2 -- -- 98
2019-12-08 19:00:00 5.8 2 Norte 6 Norte 0.2 -- -- 98
2019-12-08 18:00:00 5.7 5 Norte 6 Norte 0.4 -- -- 98
2019-12-08 17:00:00 5.8 2 Noroeste 5 Norte 0.6 -- -- 98
2019-12-08 16:00:00 5.8 3 Noroeste 10 Oeste 0.4 -- -- 98
2019-12-08 15:00:00 5.7 4 Oeste 9 Noroeste 0.4 -- -- 97
2019-12-08 14:00:00 5.3 5 Noroeste 14 Noroeste 0.4 -- -- 98
2019-12-08 13:00:00 5.1 6 Noroeste 8 Noroeste 0 -- -- 97
2019-12-08 12:00:00 4.9 3 Norte 5 Norte 0 -- -- 97
2019-12-08 11:00:00 4.4 3 Norte 5 Norte 0 -- -- 98
2019-12-08 10:00:00 2.9 4 Norte 6 Norte 0.2 -- -- 97
2019-12-08 09:00:00 0.2 4 Norte 6 Nordeste 0 -- -- 98
2019-12-08 08:00:00 0 3 Sudeste 6 Sudeste 0 -- -- 98
2019-12-08 07:00:00 -0.2 2 Noroeste 4 Nordeste 0 -- -- 97
2019-12-08 06:00:00 -0.2 2 Nordeste 5 Nordeste 0 -- -- 98
2019-12-08 05:00:00 0.3 3 Nordeste 5 Nordeste 0 -- -- 97
2019-12-08 04:00:00 0.4 2 Nordeste 4 Este 0 -- -- 97
2019-12-08 03:00:00 0.6 2 Este 4 Nordeste 0 -- -- 96
2019-12-08 02:00:00 1.3 4 Sudeste 5 Este 0 -- -- 96
2019-12-08 01:00:00 2.1 0 Calma 4 Norte 0 -- -- 96
2019-12-08 00:00:00 2 2 Norte 4 Nordeste 0 -- -- 94
2019-12-07 23:00:00 2.9 2 Nordeste 4 Nordeste 0 -- -- 93
2019-12-07 22:00:00 4 0 Calma 3 Norte 0 -- -- 90
2019-12-07 21:00:00 4.9 3 Norte 5 Norte 0 -- -- 90
2019-12-07 20:00:00 5.3 5 Norte 6 Norte 0 -- -- 86
2019-12-07 19:00:00 6.7 8 Oeste 13 Oeste 0 -- -- 81
2019-12-07 18:00:00 7.7 9 Sudoeste 12 Oeste 0 -- -- 77
2019-12-07 17:00:00 10 6 Oeste 14 Oeste 0 -- -- 70
2019-12-07 16:00:00 10.5 8 Oeste 16 Oeste 0 -- -- 68
2019-12-07 15:00:00 10.4 7 Oeste 15 Noroeste 0 -- -- 71
2019-12-07 14:00:00 9.6 6 Oeste 11 Sudoeste 0 -- -- 74
2019-12-07 13:00:00 8.8 4 Sudoeste 9 Sudoeste 0 -- -- 80
2019-12-07 12:00:00 6.4 3 Sudoeste 6 Sudoeste 0 -- -- 89
2019-12-07 11:00:00 3.8 3 Sudeste 6 Sur 0 -- -- 97
2019-12-07 10:00:00 1.7 3 Sudeste 6 Sudeste 0 -- -- 98
2019-12-07 09:00:00 0.2 0 Calma 3 Nordeste 0 -- -- 98
2019-12-07 08:00:00 -0.7 2 Este 5 Nordeste 0 -- -- 97
2019-12-07 07:00:00 -1.1 2 Norte 5 Este 0 -- -- 97
2019-12-07 06:00:00 -0.7 3 Nordeste 5 Nordeste 0 -- -- 97
2019-12-07 05:00:00 -0.2 4 Norte 9 Sudeste 0 -- -- 96
2019-12-07 04:00:00 0 3 Nordeste 8 Sudeste 0 -- -- 96
2019-12-07 03:00:00 0.7 3 Norte 6 Sudeste 0 -- -- 94
2019-12-07 02:00:00 1.4 0 Calma 4 Este 0 -- -- 95
2019-12-07 01:00:00 1.4 3 Este 6 Norte 0 -- -- 95
2019-12-07 00:00:00 1.7 0 Calma 5 Norte 0 -- -- 95
2019-12-06 23:00:00 2.3 4 Norte 5 Norte 0 -- -- 92
2019-12-06 22:00:00 3 3 Este 6 Este 0 -- -- 92
2019-12-06 21:00:00 3.2 4 Norte 6 Nordeste 0 -- -- 91
2019-12-06 20:00:00 5.3 3 Norte 4 Norte 0 -- -- 85
2019-12-06 19:00:00 6.7 0 Calma 6 Oeste 0 -- -- 80
2019-12-06 18:00:00 8.3 5 Oeste 6 Oeste 0 -- -- 76
2019-12-06 17:00:00 10.4 0 Calma 10 Sur 0 -- -- 69
2019-12-06 16:00:00 10.5 7 Sudeste 13 Sudeste 0 -- -- 69
2019-12-06 15:00:00 10.5 11 Sur 16 Sur 0 -- -- 69
2019-12-06 14:00:00 9.1 12 Sudeste 21 Sudeste 0 -- -- 75
2019-12-06 13:00:00 8.3 14 Este 23 Sudeste 0 -- -- 76
2019-12-06 12:00:00 6.9 15 Sudeste 28 Este 0 -- -- 83
2019-12-06 11:00:00 6.2 15 Sudeste 26 Sudeste 0 -- -- 85
2019-12-06 10:00:00 4.2 13 Sudeste 21 Este 0 -- -- 86
2019-12-06 09:00:00 2.6 12 Este 18 Este 0 -- -- 94
2019-12-06 08:00:00 2.5 10 Este 15 Este 0 -- -- 94
2019-12-06 07:00:00 2.4 7 Sudeste 14 Este 0 -- -- 91
2019-12-06 06:00:00 2.6 11 Este 15 Este 0 -- -- 91
2019-12-06 05:00:00 1.9 7 Este 9 Este 0 -- -- 94
2019-12-06 04:00:00 2.2 0 Calma 12 Este 0 -- -- 91
2019-12-06 03:00:00 3.6 9 Este 13 Este 0 -- -- 90
2019-12-06 02:00:00 3.5 9 Sudeste 16 Este 0 -- -- 90
2019-12-06 01:00:00 3.3 9 Sudeste 14 Sudeste 0 -- -- 90
2019-12-06 00:00:00 3.5 6 Este 9 Este 0 -- -- 89
2019-12-05 23:00:00 3.3 2 Nordeste 5 Norte 0 -- -- 89
2019-12-05 22:00:00 4 3 Sudeste 6 Sudeste 0 -- -- 88
2019-12-05 21:00:00 4.3 2 Nordeste 14 Nordeste 0 -- -- 83
2019-12-05 20:00:00 4.8 10 Nordeste 14 Nordeste 0 -- -- 83
2019-12-05 19:00:00 6.1 9 Nordeste 15 Nordeste 0 -- -- 80
2019-12-05 18:00:00 8.1 4 Este 14 Sudeste 0 -- -- 73
2019-12-05 17:00:00 9.8 8 Este 18 Este 0 -- -- 67
2019-12-05 16:00:00 11.5 11 Este 26 Este 0 -- -- 60
2019-12-05 15:00:00 11.3 11 Este 25 Nordeste 0 -- -- 61
2019-12-05 14:00:00 11 9 Nordeste 20 Nordeste 0 -- -- 60
2019-12-05 13:00:00 10 8 Norte 14 Nordeste 0 -- -- 64
2019-12-05 12:00:00 9 6 Nordeste 14 Este 0 -- -- 67
2019-12-05 11:00:00 7.5 9 Nordeste 14 Nordeste 0 -- -- 72
2019-12-05 10:00:00 6.2 7 Nordeste 12 Nordeste 0 -- -- 77
2019-12-05 09:00:00 3.5 2 Norte 10 Este 0 -- -- 88
2019-12-05 08:00:00 4.1 8 Nordeste 13 Nordeste 0 -- -- 88
2019-12-05 07:00:00 2.9 0 Calma 6 Sudoeste 0 -- -- 89
2019-12-05 06:00:00 3.5 0 Calma 5 Noroeste 0 -- -- 88
2019-12-05 05:00:00 3.4 2 Nordeste 6 Nordeste 0 -- -- 86
2019-12-05 04:00:00 3.2 3 Norte 13 Nordeste 0 -- -- 86
2019-12-05 03:00:00 3.7 6 Norte 13 Norte 0 -- -- 84
2019-12-05 02:00:00 3.2 7 Nordeste 15 Norte 0 -- -- 85
2019-12-05 01:00:00 3.6 11 Este 17 Este 0 -- -- 84
2019-12-05 00:00:00 2.5 6 Sur 12 Sudeste 0 -- -- 89
2019-12-04 23:00:00 3.4 0 Calma 8 Sudeste 0 -- -- 80
2019-12-04 22:00:00 5.2 7 Oeste 11 Oeste 0 -- -- 70
2019-12-04 21:00:00 5.8 5 Oeste 17 Norte 0 -- -- 76
2019-12-04 20:00:00 6.5 10 Norte 17 Norte 0 -- -- 78
2019-12-04 19:00:00 7.7 10 Norte 22 Norte 0 -- -- 76
2019-12-04 18:00:00 9 8 Nordeste 17 Nordeste 0 -- -- 72
2019-12-04 17:00:00 10.5 5 Nordeste 14 Norte 0 -- -- 67
2019-12-04 16:00:00 10.4 9 Norte 15 Norte 0 -- -- 70
2019-12-04 15:00:00 10.8 8 Noroeste 15 Noroeste 0 -- -- 69
2019-12-04 14:00:00 8.6 9 Oeste 15 Oeste 0 -- -- 80
2019-12-04 13:00:00 7.5 5 Sudoeste 10 Sudoeste 0 -- -- 85
2019-12-04 12:00:00 6.1 4 Noroeste 6 Noroeste 0 -- -- 88
2019-12-04 11:00:00 4.4 0 Calma 5 Noroeste 0 -- -- 91
2019-12-04 10:00:00 3.1 0 Calma 10 Este 0 -- -- 95
2019-12-04 09:00:00 1.4 7 Este 9 Este 0 -- -- 95
2019-12-04 08:00:00 1.6 3 Sudeste 10 Este 0 -- -- 95
2019-12-04 07:00:00 1.4 6 Este 10 Este 0 -- -- 95
2019-12-04 06:00:00 1.2 5 Este 11 Este 0 -- -- 93
2019-12-04 05:00:00 0.9 5 Este 13 Sudeste 0 -- -- 94
2019-12-04 04:00:00 0.6 9 Sudeste 13 Sudeste 0 -- -- 93
2019-12-04 03:00:00 0.6 5 Sudeste 13 Sudeste 0 -- -- 92
2019-12-04 02:00:00 0.3 4 Sudeste 13 Sudeste 0 -- -- 92
2019-12-04 01:00:00 0.3 5 Este 15 Sudeste 0 -- -- 93
2019-12-04 00:00:00 0.3 6 Sudeste 21 Sudeste 0 -- -- 92
2019-12-03 23:00:00 0.8 13 Sudeste 25 Sudeste 0 -- -- 92
2019-12-03 22:00:00 -0.3 9 Este 19 Sudeste 0 -- -- 94
2019-12-03 21:00:00 0 5 Sudeste 14 Sudeste 0 -- -- 91
2019-12-03 20:00:00 0.6 10 Este 21 Este 0 -- -- 90
2019-12-03 19:00:00 0.6 6 Sudeste 21 Sudeste 0 -- -- 89
2019-12-03 18:00:00 1.8 13 Sudeste 26 Sudeste 0 -- -- 85
2019-12-03 17:00:00 4.4 15 Sudeste 33 Sudeste 0 -- -- 76
2019-12-03 16:00:00 6.4 15 Sudeste 25 Sur 0 -- -- 63
2019-12-03 15:00:00 6.3 10 Sudeste 19 Sudeste 0 -- -- 63
2019-12-03 14:00:00 5.4 8 Sudeste 18 Sudeste 0 -- -- 69
2019-12-03 13:00:00 4.2 6 Este 17 Sudeste 0 -- -- 70
2019-12-03 12:00:00 2.9 7 Sudeste 18 Sudeste 0 -- -- 78
2019-12-03 11:00:00 1.4 11 Sudeste 17 Sudeste 0 -- -- 85
2019-12-03 10:00:00 -0.3 7 Este 11 Sudeste 0 -- -- 92
2019-12-03 09:00:00 -3.3 3 Nordeste 6 Este 0 -- -- 95
2019-12-03 08:00:00 -3.3 0 Calma 4 Sudeste 0 -- -- 94
2019-12-03 07:00:00 -2.8 4 Sudeste 9 Sudeste 0 -- -- 93
2019-12-03 06:00:00 -1.9 3 Sudeste 6 Sudeste 0 -- -- 93
2019-12-03 05:00:00 -2.4 3 Este 5 Este 0 -- -- 92
2019-12-03 04:00:00 -2.5 2 Norte -- -- 0 -- -- 91
2019-12-03 03:00:00 -2 0 Calma 4 Nordeste 0 -- -- 89
2019-12-03 02:00:00 -1.8 2 Nordeste 5 Norte 0 -- -- 87
2019-12-03 01:00:00 -0.8 4 Nordeste 5 Nordeste 0 -- -- 85
2019-12-03 00:00:00 -0.6 3 Este 11 Nordeste 0 -- -- 86
2019-12-02 23:00:00 0.2 3 Nordeste 13 Norte 0 -- -- 83
2019-12-02 22:00:00 0.9 10 Norte 15 Nordeste 0 -- -- 84
2019-12-02 21:00:00 2.1 10 Nordeste 24 Nordeste 0 -- -- 80
2019-12-02 20:00:00 2.9 10 Nordeste 19 Nordeste 0 -- -- 78
2019-12-02 19:00:00 3.3 11 Norte 26 Nordeste 0 -- -- 79
2019-12-02 18:00:00 4.7 15 Nordeste 30 Norte 0 -- -- 75
2019-12-02 17:00:00 7 13 Norte 31 Nordeste 0 -- -- 70
2019-12-02 16:00:00 8.7 17 Nordeste 27 Nordeste 0 -- -- 55
2019-12-02 15:00:00 9.8 7 Nordeste 27 Este 0 -- -- 56
2019-12-02 14:00:00 9.6 14 Nordeste 31 Este 0 -- -- 58
2019-12-02 13:00:00 9.2 10 Nordeste 26 Nordeste 0 -- -- 59
2019-12-02 12:00:00 8.3 8 Norte 27 Este 0 -- -- 64
2019-12-02 11:00:00 7.3 15 Nordeste 23 Nordeste 0 -- -- 67
2019-12-02 10:00:00 5 6 Norte 13 Norte 0 -- -- 77
2019-12-02 09:00:00 3.4 2 Sudoeste 21 Nordeste 0 -- -- 81
2019-12-02 08:00:00 2.6 7 Nordeste 20 Nordeste 0 -- -- 84
2019-12-02 07:00:00 1.6 5 Sudeste 13 Nordeste 0 -- -- 89
2019-12-02 06:00:00 1.6 5 Nordeste 11 Nordeste 0 -- -- 92
2019-12-02 05:00:00 2.2 6 Este 11 Este 0 -- -- 91
2019-12-02 04:00:00 1.9 6 Este 12 Este 0 -- -- 91
2019-12-02 03:00:00 2.5 3 Sur 10 Nordeste 0 -- -- 91
2019-12-02 02:00:00 3.3 6 Nordeste 14 Nordeste 0 -- -- 88
2019-12-02 01:00:00 3.6 7 Nordeste 15 Nordeste 0 -- -- 88
2019-12-02 00:00:00 4.3 11 Nordeste 23 Nordeste 0 -- -- 86
2019-12-01 23:00:00 5 11 Nordeste 19 Norte 0 -- -- 85
2019-12-01 22:00:00 5.3 9 Nordeste 17 Nordeste 0 -- -- 87
2019-12-01 21:00:00 5.4 7 Este 17 Este 0 -- -- 87
2019-12-01 20:00:00 5.4 9 Este 17 Nordeste 0 -- -- 90
2019-12-01 19:00:00 5.5 12 Nordeste 18 Nordeste 0.2 -- -- 90
2019-12-01 18:00:00 6.3 10 Nordeste 15 Nordeste 0.2 -- -- 87
2019-12-01 17:00:00 7.8 3 Sudoeste 5 Oeste 0 -- -- 71
2019-12-01 16:00:00 7.8 0 Calma 8 Sudeste 0 -- -- 69
2019-12-01 15:00:00 7.7 4 Este 12 Sudeste 0 -- -- 69
2019-12-01 14:00:00 7.7 9 Sudeste 14 Sudeste 0 -- -- 68
2019-12-01 13:00:00 8 9 Este 16 Sudeste 0 -- -- 68
2019-12-01 12:00:00 7.4 8 Sudeste 15 Sudeste 0 -- -- 79
2019-12-01 11:00:00 6.5 10 Sudeste 20 Este 0 -- -- 83
2019-12-01 10:00:00 5.2 9 Sudeste 15 Este 0 -- -- 94
2019-12-01 09:00:00 3.9 7 Este 14 Este 0 -- -- 96
2019-12-01 08:00:00 3.7 5 Este 10 Este 0 -- -- 95
2019-12-01 07:00:00 3.5 4 Este 9 Este 0 -- -- 95
2019-12-01 06:00:00 3.7 5 Sudeste 8 Sudeste 0 -- -- 95
2019-12-01 05:00:00 4 5 Sudeste 11 Sudeste 0 -- -- 95
2019-12-01 04:00:00 4.3 4 Sudeste 10 Este 0 -- -- 95
2019-12-01 03:00:00 4.5 4 Sudeste 9 Sudeste 0 -- -- 95
2019-12-01 02:00:00 4.2 4 Este 6 Sudoeste 0 -- -- 95
2019-12-01 01:00:00 3.5 0 Calma 5 Sudoeste 0 -- -- 95
2019-12-01 00:00:00 3.7 2 Noroeste 10 Sudoeste 0 -- -- 93
2019-11-30 23:00:00 4.7 4 Sur 17 Oeste 0 -- -- 92
2019-11-30 22:00:00 5.7 10 Oeste 23 Oeste 0 -- -- 89
2019-11-30 21:00:00 6.1 10 Oeste 23 Sudoeste 0 -- -- 91
2019-11-30 20:00:00 6.5 8 Sur 15 Sudeste 0.2 -- -- 96
2019-11-30 19:00:00 6.4 6 Sudeste 32 Noroeste 0.4 -- -- 94
2019-11-30 18:00:00 6.5 18 Noroeste 40 Noroeste 4.2 -- -- 95
2019-11-30 17:00:00 8.7 13 Oeste 44 Oeste 2.4 -- -- 95
2019-11-30 16:00:00 10.5 21 Oeste 48 Sudoeste 2.6 -- -- 94
2019-11-30 15:00:00 11.7 23 Sudoeste 58 Sudoeste 0 -- -- 89
2019-11-30 14:00:00 12.4 22 Sudoeste 38 Sudoeste 0 -- -- 83
2019-11-30 13:00:00 12 15 Sudoeste 30 Sudoeste 0.2 -- -- 85
2019-11-30 12:00:00 11.6 13 Sudoeste 27 Sudoeste 0.2 -- -- 87
2019-11-30 11:00:00 10.7 4 Sudoeste 15 Sur 0 -- -- 94
2019-11-30 10:00:00 9.9 6 Sur 12 Sur 0 -- -- 96
2019-11-30 09:00:00 9.6 9 Sudeste 12 Sudeste 0 -- -- 97
2019-11-30 08:00:00 9.8 2 Sudeste 15 Sudoeste 0 -- -- 97
2019-11-30 07:00:00 10 10 Sur 18 Sudoeste 0 -- -- 97
2019-11-30 06:00:00 10.1 8 Sudoeste 15 Sudoeste 0 -- -- 97
2019-11-30 05:00:00 9.3 6 Sur 13 Sudeste 0.2 -- -- 97
2019-11-30 04:00:00 9 8 Sur 13 Sur 0.6 -- -- 97
2019-11-30 03:00:00 8.6 5 Sudeste 12 Sudeste 1 -- -- 96
2019-11-30 02:00:00 8.8 6 Sudeste 12 Sudeste 0.2 -- -- 96
2019-11-30 01:00:00 8.9 6 Sudeste 12 Sudeste 0.2 -- -- 96
2019-11-30 00:00:00 8.8 4 Sudeste 7 Este 0 -- -- 95
2019-11-29 23:00:00 9.1 2 Este 7 Este 0 -- -- 95
2019-11-29 22:00:00 8.3 0 Calma 7 Sudeste 0 -- -- 94
2019-11-29 21:00:00 8.7 4 Sudeste 7 Sudeste 0 -- -- 92
2019-11-29 20:00:00 9.4 0 Calma 3 Noroeste 0 -- -- 89
2019-11-29 19:00:00 9.9 0 Calma 6 Oeste 0 -- -- 87
2019-11-29 18:00:00 10.7 5 Oeste 13 Oeste 0 -- -- 84
2019-11-29 17:00:00 11.6 9 Oeste 15 Oeste 0 -- -- 78
2019-11-29 16:00:00 12.4 9 Oeste 15 Oeste 0 -- -- 77
2019-11-29 15:00:00 12.3 9 Oeste 16 Noroeste 0 -- -- 80
2019-11-29 14:00:00 11.8 8 Oeste 14 Oeste 0 -- -- 87
2019-11-29 13:00:00 10.9 6 Sudoeste 10 Sudoeste 0 -- -- 89
2019-11-29 12:00:00 10.7 8 Noroeste 12 Noroeste 0 -- -- 91
2019-11-29 11:00:00 10.5 5 Oeste 11 Sudoeste 0 -- -- 97
2019-11-29 10:00:00 9.9 5 Oeste 12 Noroeste 0 -- -- 97
2019-11-29 09:00:00 9.4 8 Noroeste 16 Noroeste 0 -- -- 97
2019-11-29 08:00:00 9.6 8 Oeste 16 Oeste 0.2 -- -- 97
2019-11-29 07:00:00 9.7 5 Oeste 13 Oeste 0.2 -- -- 97
2019-11-29 06:00:00 9.6 8 Oeste 17 Oeste 0 -- -- 97
2019-11-29 05:00:00 9.6 8 Oeste 18 Oeste 0 -- -- 97
2019-11-29 04:00:00 9.6 10 Oeste 22 Oeste 0 -- -- 97
2019-11-29 03:00:00 9.5 12 Oeste 27 Oeste 0 -- -- 96
2019-11-29 02:00:00 9.2 14 Oeste 27 Oeste 0 -- -- 96
2019-11-29 01:00:00 9 15 Oeste 30 Oeste 0 -- -- 96
2019-11-29 00:00:00 8.9 9 Sudoeste 27 Oeste 0.2 -- -- 94
2019-11-28 23:00:00 9.2 17 Oeste 37 Oeste 0 -- -- 91
2019-11-28 22:00:00 9.8 14 Sudoeste 30 Sudoeste 0 -- -- 83
2019-11-28 21:00:00 9.9 17 Sudoeste 39 Sudoeste 0 -- -- 83
2019-11-28 20:00:00 10.2 15 Oeste 36 Sudoeste 0 -- -- 81
2019-11-28 19:00:00 10 12 Oeste 28 Sudoeste 0 -- -- 80
2019-11-28 18:00:00 9.8 11 Sudoeste 31 Sudoeste 0 -- -- 79
2019-11-28 17:00:00 10 14 Sudoeste 29 Sudoeste 0 -- -- 79
2019-11-28 16:00:00 10.4 10 Sudoeste 29 Sudoeste 0 -- -- 82
2019-11-28 15:00:00 10.1 12 Oeste 25 Sudoeste 0 -- -- 90
2019-11-28 14:00:00 9.4 17 Sudoeste 36 Oeste 0 -- -- 92
2019-11-28 13:00:00 10.3 24 Oeste 40 Oeste 0 -- -- 81
2019-11-28 12:00:00 9.6 18 Sudoeste 36 Sudoeste 0 -- -- 85
2019-11-28 11:00:00 8.9 19 Sudoeste 36 Sudoeste 0 -- -- 89
2019-11-28 10:00:00 8.2 11 Sudoeste 35 Oeste 0 -- -- 92
2019-11-28 09:00:00 7.9 17 Sudoeste 35 Sudoeste 0 -- -- 94
2019-11-28 08:00:00 7.5 14 Sudoeste 32 Sur 0.2 -- -- 95
2019-11-28 07:00:00 7.5 15 Sudoeste 30 Oeste 0.2 -- -- 95
2019-11-28 06:00:00 7.8 14 Sudoeste 36 Oeste 0 -- -- 91
2019-11-28 05:00:00 7.7 21 Oeste 41 Oeste 0 -- -- 91
2019-11-28 04:00:00 7.5 19 Oeste 42 Oeste 0 -- -- 94
2019-11-28 03:00:00 7.6 22 Oeste 40 Oeste 0 -- -- 93
2019-11-28 02:00:00 7.9 25 Oeste 45 Oeste 0 -- -- 89
2019-11-28 01:00:00 7.8 28 Oeste 42 Oeste 0 -- -- 89
2019-11-28 00:00:00 7.6 19 Oeste 34 Oeste 0.2 -- -- 93
2019-11-27 23:00:00 8.1 21 Oeste 38 Oeste 0 -- -- 87
2019-11-27 22:00:00 8.1 18 Oeste 33 Sudoeste 0 -- -- 85
2019-11-27 21:00:00 8.1 13 Oeste 28 Sudoeste 0.2 -- -- 85
2019-11-27 20:00:00 8.1 16 Oeste 30 Sudoeste 0 -- -- 85
2019-11-27 19:00:00 8.4 17 Oeste 33 Sudoeste 0 -- -- 84
2019-11-27 18:00:00 8.3 13 Sudoeste 36 Oeste 0 -- -- 86
2019-11-27 17:00:00 8.5 18 Oeste 32 Sudoeste 0.2 -- -- 85
2019-11-27 16:00:00 8.7 18 Oeste 34 Sudoeste 0.6 -- -- 85
2019-11-27 15:00:00 9.7 18 Sudoeste 35 Sudoeste 0 -- -- 77
2019-11-27 14:00:00 9.7 19 Oeste 42 Oeste 0 -- -- 77
2019-11-27 06:00:00 -- -- -- -- -- -- -- -- --
2019-11-27 05:00:00 -- -- -- -- -- -- -- -- --
2019-11-27 04:00:00 -- -- -- -- -- -- -- -- --
2019-11-27 03:00:00 -- -- -- -- -- -- -- -- --
2019-11-27 02:00:00 7.5 17 Oeste 41 Oeste 0 -- -- 93
2019-11-27 01:00:00 8.4 27 Oeste 43 Oeste 0.4 -- -- 94
2019-11-27 00:00:00 9 22 Oeste 45 Oeste 2 -- -- 93
2019-11-26 23:00:00 10.8 19 Sudoeste 44 Sudoeste 0 -- -- 79
2019-11-26 22:00:00 11.1 24 Sudoeste 50 Sudoeste 0 -- -- 83
2019-11-26 21:00:00 10.9 15 Sudoeste 33 Sudoeste 0 -- -- 89
2019-11-26 20:00:00 11.7 31 Sudoeste 66 Sudoeste 0.2 -- -- 86
2019-11-26 19:00:00 12 19 Sur 27 Sur 0 -- -- 80
2019-11-26 18:00:00 11.9 12 Sur 30 Sur 0.2 -- -- 83
2019-11-26 17:00:00 13 13 Sur 23 Sudeste 0 -- -- 81
2019-11-26 16:00:00 14.3 15 Sur 23 Sudoeste 0 -- -- 81
2019-11-26 15:00:00 12.9 13 Sudoeste 27 Sudoeste 0 -- -- 90
2019-11-26 14:00:00 11.7 10 Sudeste 16 Sudeste 0 -- -- 96
2019-11-26 13:00:00 10.6 11 Sudeste 19 Sudeste 0 -- -- 97
2019-11-26 12:00:00 10.2 6 Sur 11 Sur 0 -- -- 96
2019-11-26 11:00:00 9.3 6 Sudeste 13 Este 1 -- -- 97
2019-11-26 10:00:00 8.4 7 Sudeste 12 Sudeste 0.2 -- -- 97
2019-11-26 09:00:00 8 6 Sudeste 11 Sudeste 0 -- -- 96
2019-11-26 08:00:00 8 4 Sudeste 10 Sudeste 0.2 -- -- 95
2019-11-26 07:00:00 8.2 5 Sudeste 8 Sudeste 0 -- -- 94
2019-11-26 06:00:00 8.1 0 Calma 10 Este 0 -- -- 94
2019-11-26 05:00:00 8 4 Este 9 Sudeste 0 -- -- 94
2019-11-26 04:00:00 8.4 3 Sudoeste 8 Oeste 0 -- -- 92
2019-11-26 03:00:00 8.2 3 Norte 13 Oeste 0 -- -- 92
2019-11-26 02:00:00 8.5 6 Oeste 13 Sudoeste 0 -- -- 92
2019-11-26 01:00:00 8.4 5 Oeste 13 Oeste 0 -- -- 91
2019-11-26 00:00:00 8.5 5 Oeste 13 Oeste 0 -- -- 91
2019-11-25 23:00:00 8.4 9 Oeste 17 Oeste 0 -- -- 89
2019-11-25 22:00:00 8.7 6 Oeste 17 Oeste 0 -- -- 87
2019-11-25 21:00:00 8.8 7 Oeste 15 Oeste 0 -- -- 87
2019-11-25 20:00:00 8.9 7 Oeste 16 Oeste 0 -- -- 86
2019-11-25 19:00:00 9.5 10 Oeste 20 Oeste 0 -- -- 82
2019-11-25 18:00:00 9.7 7 Oeste 27 Oeste 0 -- -- 82
2019-11-25 17:00:00 10.4 15 Oeste 33 Oeste 0 -- -- 82
2019-11-25 16:00:00 10.7 15 Oeste 27 Oeste 0 -- -- 88
2019-11-25 15:00:00 10.4 13 Noroeste 26 Oeste 0 -- -- 90
2019-11-25 14:00:00 11.5 18 Oeste 32 Oeste 0 -- -- 80
2019-11-25 13:00:00 11.1 18 Oeste 31 Oeste 0 -- -- 85
2019-11-25 12:00:00 10.7 16 Oeste 30 Oeste 0 -- -- 88
2019-11-25 11:00:00 9.5 15 Oeste 30 Sudoeste 0 -- -- 95
2019-11-25 10:00:00 9 12 Oeste 23 Oeste 0 -- -- 96
2019-11-25 09:00:00 8.6 14 Oeste 24 Sudoeste 0 -- -- 96
2019-11-25 08:00:00 8.4 13 Oeste 29 Oeste 0 -- -- 96
2019-11-25 07:00:00 8.6 15 Oeste 30 Sudoeste 0 -- -- 95
2019-11-25 06:00:00 8.5 14 Oeste 34 Oeste 0 -- -- 96
2019-11-25 05:00:00 8.7 17 Oeste 37 Oeste 0.2 -- -- 97
2019-11-25 04:00:00 8.6 12 Oeste 31 Oeste 0.4 -- -- 97
2019-11-25 03:00:00 8.4 14 Sudoeste 23 Oeste 0 -- -- 97
2019-11-25 02:00:00 6.7 4 Noroeste 13 Oeste 0.4 -- -- 97
2019-11-25 01:00:00 6 3 Nordeste 12 Este 1.4 -- -- 96
2019-11-25 00:00:00 5.8 4 Este 8 Sudeste 0.2 -- -- 96
2019-11-24 23:00:00 5.6 4 Sudeste 11 Este 0 -- -- 95
2019-11-24 22:00:00 5.5 0 Calma 9 Este 0.2 -- -- 94
2019-11-24 21:00:00 5.6 0 Calma 13 Sudoeste 0.2 -- -- 93
2019-11-24 20:00:00 5.6 10 Sudoeste 17 Sudoeste 0 -- -- 92
2019-11-24 19:00:00 6.1 5 Oeste 10 Oeste 0 -- -- 85
2019-11-24 18:00:00 6.2 8 Oeste 22 Oeste 0 -- -- 83
2019-11-24 17:00:00 6.5 9 Oeste 24 Oeste 0 -- -- 81
2019-11-24 16:00:00 6.6 14 Oeste 24 Oeste 0 -- -- 77
2019-11-24 15:00:00 6.3 11 Sudoeste 29 Oeste 0 -- -- 76
2019-11-24 14:00:00 6.4 12 Sudoeste 23 Oeste 0 -- -- 78
2019-11-24 13:00:00 5 13 Oeste 23 Oeste 0 -- -- 82
2019-11-24 12:00:00 4.3 13 Oeste 21 Oeste 0 -- -- 87
2019-11-24 11:00:00 3.6 8 Oeste 15 Oeste 0 -- -- 91
2019-11-24 10:00:00 3 7 Oeste 18 Oeste 0 -- -- 93
2019-11-24 09:00:00 2.9 7 Oeste 17 Oeste 0 -- -- 94
2019-11-24 08:00:00 2.7 9 Oeste 30 Oeste 0 -- -- 94
2019-11-24 07:00:00 2.6 8 Oeste 20 Oeste 0 -- -- 95
2019-11-24 06:00:00 2.5 10 Oeste 21 Oeste 0 -- -- 96
2019-11-24 05:00:00 2.4 12 Noroeste 26 Oeste 0 -- -- 96
2019-11-24 04:00:00 2.4 13 Oeste 21 Noroeste 0 -- -- 95
2019-11-24 03:00:00 2.3 6 Oeste 13 Oeste 0 -- -- 94
2019-11-24 02:00:00 2.2 0 Calma 12 Oeste 0 -- -- 93
2019-11-24 01:00:00 2.6 10 Oeste 19 Oeste 0 -- -- 91
2019-11-24 00:00:00 3 9 Oeste 19 Oeste 0 -- -- 89
2019-11-23 23:00:00 2.7 3 Nordeste 15 Oeste 0 -- -- 88
2019-11-23 22:00:00 3.9 10 Oeste 22 Oeste 0 -- -- 82
2019-11-23 21:00:00 5.1 15 Oeste 29 Oeste 0 -- -- 80
2019-11-23 20:00:00 5.3 13 Oeste 28 Oeste 0 -- -- 79
2019-11-23 19:00:00 5.9 12 Oeste 27 Oeste 0 -- -- 76
2019-11-23 18:00:00 6.2 14 Oeste 40 Oeste 0 -- -- 74
2019-11-23 17:00:00 7.3 21 Oeste 44 Oeste 0 -- -- 68
2019-11-23 16:00:00 7.2 22 Oeste 46 Oeste 0 -- -- 69
2019-11-23 15:00:00 7.8 25 Oeste 45 Noroeste 0 -- -- 69
2019-11-23 14:00:00 7.2 26 Oeste 51 Oeste 0 -- -- 69
2019-11-23 13:00:00 6.5 28 Oeste 57 Oeste 0 -- -- 75
2019-11-23 12:00:00 5.9 33 Oeste 58 Oeste 0 -- -- 75
2019-11-23 11:00:00 5.6 27 Oeste 52 Oeste 0 -- -- 77
2019-11-23 10:00:00 3.9 21 Oeste 48 Oeste 0 -- -- 84
2019-11-23 09:00:00 3.3 23 Oeste 51 Oeste 0 -- -- 88
2019-11-23 08:00:00 3.5 25 Oeste 50 Oeste 0 -- -- 89
2019-11-23 07:00:00 3.8 27 Oeste 58 Oeste 0 -- -- 89
2019-11-23 06:00:00 4 26 Oeste 45 Oeste 0 -- -- 91
2019-11-23 05:00:00 3.9 27 Oeste 47 Oeste 1.4 -- -- 94
2019-11-23 04:00:00 3.9 24 Oeste 50 Oeste 1 -- -- 92
2019-11-23 03:00:00 5.2 23 Oeste 55 Oeste 0 -- -- 85
2019-11-23 02:00:00 5.9 26 Oeste 45 Sudoeste 0 -- -- 85
2019-11-23 01:00:00 6.4 23 Sudoeste 42 Sudoeste 0 -- -- 87
2019-11-23 00:00:00 6.6 19 Oeste 36 Sudoeste 0.2 -- -- 89
2019-11-22 23:00:00 6.7 26 Sudoeste 44 Sudoeste 0.4 -- -- 89
2019-11-22 22:00:00 6.8 24 Sudoeste 42 Sudoeste 0.2 -- -- 87
2019-11-22 21:00:00 6.9 17 Sudoeste 33 Sudoeste 0 -- -- 93
2019-11-22 20:00:00 7.3 23 Oeste 45 Oeste 0 -- -- 91
2019-11-22 19:00:00 8.2 13 Sudoeste 34 Sudoeste 0.2 -- -- 90
2019-11-22 18:00:00 8.7 16 Sudoeste 64 Oeste 0.2 -- -- 90
2019-11-22 17:00:00 10.8 17 Sudoeste 33 Sudoeste 0.2 -- -- 78
2019-11-22 16:00:00 10.1 13 Sur 37 Sur 0 -- -- 83
2019-11-22 15:00:00 9.1 23 Sur 49 Sur 1 -- -- 87
2019-11-22 14:00:00 9.3 27 Sur 44 Sur 0.4 -- -- 82
2019-11-22 13:00:00 8.8 16 Sudeste 31 Sudeste 0 -- -- 84
2019-11-22 12:00:00 7.5 17 Sudeste 28 Sudeste 0 -- -- 89
2019-11-22 11:00:00 6.4 16 Sudeste 27 Sudeste 0.2 -- -- 93
2019-11-22 10:00:00 5.5 14 Sudeste 24 Sudeste 1.6 -- -- 95
2019-11-22 09:00:00 5 12 Sudeste 23 Sudeste 1 -- -- 95
2019-11-22 08:00:00 4.7 14 Sudeste 24 Sudeste 0.4 -- -- 95
2019-11-22 07:00:00 4.4 14 Sudeste 31 Este 0.2 -- -- 95
2019-11-22 06:00:00 4.1 9 Sudeste 15 Sudeste 0.4 -- -- 95
2019-11-22 05:00:00 3.9 4 Sudeste 11 Sudeste 0.2 -- -- 93
2019-11-22 04:00:00 3.7 7 Sudeste 16 Sudeste 0 -- -- 92
2019-11-22 03:00:00 4 6 Sudeste 14 Este 0 -- -- 91
2019-11-22 02:00:00 4.1 9 Sudeste 15 Este 0 -- -- 90
2019-11-22 01:00:00 4 3 Sudeste 10 Sudeste 0 -- -- 93
2019-11-22 00:00:00 4 3 Sudeste 13 Sudeste 0 -- -- 94
2019-11-21 23:00:00 3.9 8 Sudeste 12 Sudeste 0 -- -- 94
2019-11-21 22:00:00 3.5 8 Sudeste 9 Sudeste 0 -- -- 92
2019-11-21 21:00:00 4.5 5 Sudeste 6 Sur 0 -- -- 90
2019-11-21 20:00:00 5 4 Sur 6 Sur 0 -- -- 89
2019-11-21 19:00:00 5.3 3 Sur 5 Sudoeste 0 -- -- 88
2019-11-21 18:00:00 5.9 2 Sur 11 Oeste 0 -- -- 83
2019-11-21 17:00:00 6.8 6 Oeste 19 Oeste 0 -- -- 78
2019-11-21 16:00:00 7.4 10 Oeste 22 Oeste 0 -- -- 79
2019-11-21 15:00:00 6.9 12 Oeste 22 Sudoeste 0 -- -- 87
2019-11-21 14:00:00 6.1 9 Oeste 19 Sudoeste 0 -- -- 93
2019-11-21 13:00:00 5.9 14 Sudoeste 25 Sudoeste 0 -- -- 95
2019-11-21 12:00:00 5.1 9 Sudoeste 20 Sudoeste 0.2 -- -- 95
2019-11-21 11:00:00 4.7 11 Sur 21 Sur 0.4 -- -- 95
2019-11-21 10:00:00 4.2 7 Sudoeste 18 Sudoeste 0 -- -- 95
2019-11-21 09:00:00 4 5 Sudoeste 12 Sudoeste 0.2 -- -- 95
2019-11-21 08:00:00 -- -- -- -- -- -- -- -- --
2019-11-21 07:00:00 -- -- -- -- -- -- -- -- --
2019-11-21 06:00:00 -- -- -- -- -- -- -- -- --
2019-11-21 05:00:00 -- -- -- -- -- -- -- -- --
2019-11-21 04:00:00 -- -- -- -- -- -- -- -- --
2019-11-21 03:00:00 -- -- -- -- -- -- -- -- --
2019-11-21 02:00:00 -- -- -- -- -- -- -- -- --
2019-11-21 01:00:00 -- -- -- -- -- -- -- -- --
2019-11-21 00:00:00 -- -- -- -- -- -- -- -- --
2019-11-20 23:00:00 -- -- -- -- -- -- -- -- --
2019-11-20 22:00:00 -- -- -- -- -- -- -- -- --
2019-11-20 21:00:00 -- -- -- -- -- -- -- -- --
2019-11-20 20:00:00 -- -- -- -- -- -- -- -- --
2019-11-20 19:00:00 4.6 3 Sur 9 Sudoeste 0.8 -- -- 93
2019-11-20 18:00:00 4.7 5 Oeste 13 Oeste 0.8 -- -- 91
2019-11-20 17:00:00 5.6 5 Oeste 9 Sudoeste 0 -- -- 84
2019-11-20 16:00:00 5.9 0 Calma 6 Norte 0 -- -- 82
2019-11-20 15:00:00 6.2 3 Noroeste 14 Sudoeste 0 -- -- 78
2019-11-20 14:00:00 6.8 8 Oeste 13 Oeste 0 -- -- 70
2019-11-20 13:00:00 6.6 10 Sudeste 16 Sudeste 0 -- -- 71
2019-11-20 12:00:00 5.6 10 Sudeste 18 Sudeste 0 -- -- 76
2019-11-20 11:00:00 4.6 12 Sudeste 24 Este 0 -- -- 80
2019-11-20 10:00:00 3.2 11 Sudeste 22 Sudeste 0 -- -- 86
2019-11-20 09:00:00 1.1 11 Este 17 Este 0 -- -- 90
2019-11-20 08:00:00 0.6 8 Este 15 Este 0 -- -- 92
2019-11-20 07:00:00 0.3 0 Calma 8 Sudeste 0 -- -- 93
2019-11-20 06:00:00 0.8 2 Este 12 Este 0 -- -- 94
2019-11-20 05:00:00 0.7 6 Este 14 Este 0 -- -- 95
2019-11-20 04:00:00 0.5 4 Sudeste 10 Este 0 -- -- 96
2019-11-20 03:00:00 0.1 5 Este 8 Este 0 -- -- 95
2019-11-20 02:00:00 -0.7 2 Este 6 Este 0 -- -- 95
2019-11-20 01:00:00 -0.5 0 Calma 7 Este 0 -- -- 94
2019-11-20 00:00:00 0.4 2 Este 8 Sudeste 0 -- -- 94
2019-11-19 23:00:00 0.7 5 Sudeste 9 Sudeste 0 -- -- 93
2019-11-19 22:00:00 1.3 4 Nordeste 6 Este 0 -- -- 92
2019-11-19 21:00:00 1.7 4 Nordeste 4 Nordeste 0 -- -- 91
2019-11-19 20:00:00 2.9 3 Norte 5 Oeste 0 -- -- 87
2019-11-19 19:00:00 4.1 5 Oeste 10 Oeste 0 -- -- 82
2019-11-19 18:00:00 4.5 6 Oeste 11 Oeste 0 -- -- 80
2019-11-19 17:00:00 5.6 5 Oeste 18 Oeste 0 -- -- 77
2019-11-19 16:00:00 6.2 12 Oeste 21 Oeste 0 -- -- 72
2019-11-19 15:00:00 6.5 13 Noroeste 20 Noroeste 0 -- -- 70
2019-11-19 14:00:00 6.6 10 Noroeste 18 Noroeste 0 -- -- 74
2019-11-19 13:00:00 6.2 6 Oeste 15 Oeste 0 -- -- 77
2019-11-19 12:00:00 4.9 4 Noroeste 8 Oeste 0 -- -- 82
2019-11-19 11:00:00 2.4 4 Noroeste 7 Norte 0 -- -- 94
2019-11-19 10:00:00 -0.5 3 Norte 6 Norte 0 -- -- 97
2019-11-19 09:00:00 -1.8 2 Sudeste 5 Sudeste 0 -- -- 97
2019-11-19 08:00:00 -2.3 2 Noroeste 3 Noroeste 0 -- -- 97
2019-11-19 07:00:00 -2 3 Noroeste 4 Noroeste 0 -- -- 97
2019-11-19 06:00:00 -2.1 2 Noroeste 7 Noroeste 0 -- -- 97
2019-11-19 05:00:00 -1.9 5 Oeste 8 Noroeste 0 -- -- 97
2019-11-19 04:00:00 -1.6 7 Noroeste 13 Sudoeste 0 -- -- 96
2019-11-19 03:00:00 -0.7 10 Sudoeste 16 Sudoeste 0 -- -- 96
2019-11-19 02:00:00 -0.8 5 Norte 13 Oeste 0 -- -- 95
2019-11-19 01:00:00 -0.4 7 Oeste 16 Oeste 0 -- -- 94
2019-11-19 00:00:00 0.1 6 Oeste 16 Oeste 0 -- -- 93
2019-11-18 23:00:00 -0.1 10 Sudoeste 16 Noroeste 0 -- -- 93
2019-11-18 22:00:00 0.4 12 Noroeste 18 Noroeste 0 -- -- 90
2019-11-18 21:00:00 1.1 5 Oeste 12 Oeste 0 -- -- 86
2019-11-18 20:00:00 2.1 7 Oeste 17 Oeste 0 -- -- 82
2019-11-18 19:00:00 2.6 10 Oeste 17 Oeste 0 -- -- 80
2019-11-18 18:00:00 3.4 3 Noroeste 32 Norte 0 -- -- 76
2019-11-18 17:00:00 5 19 Norte 33 Noroeste 0 -- -- 74
2019-11-18 16:00:00 6.1 19 Noroeste 31 Noroeste 0 -- -- 72
2019-11-18 15:00:00 5.7 18 Noroeste 35 Noroeste 0 -- -- 71
2019-11-18 14:00:00 5.6 20 Norte 37 Norte 0 -- -- 73
2019-11-18 13:00:00 5 26 Norte 39 Noroeste 0 -- -- 73
2019-11-18 12:00:00 4.2 23 Noroeste 35 Noroeste 0 -- -- 87
2019-11-18 11:00:00 3.3 20 Noroeste 32 Noroeste 0 -- -- 91
2019-11-18 10:00:00 2.2 16 Noroeste 31 Noroeste 0 -- -- 94
2019-11-18 09:00:00 1.3 15 Noroeste 23 Noroeste 0 -- -- 93
2019-11-18 08:00:00 0.9 9 Norte 21 Noroeste 0 -- -- 94
2019-11-18 07:00:00 0.5 10 Noroeste 18 Noroeste 0 -- -- 96
2019-11-18 06:00:00 0.6 6 Oeste 13 Noroeste 0 -- -- 94
2019-11-18 05:00:00 0.9 9 Noroeste 21 Noroeste 0 -- -- 94
2019-11-18 04:00:00 1 12 Noroeste 23 Oeste 0 -- -- 95
2019-11-18 03:00:00 1.3 11 Oeste 23 Oeste 0 -- -- 96
2019-11-18 02:00:00 0.9 11 Oeste 18 Oeste 0 -- -- 96
2019-11-18 01:00:00 0.8 9 Sudoeste 17 Oeste 0 -- -- 95
2019-11-18 00:00:00 0.8 8 Sudoeste 14 Noroeste 0 -- -- 94
2019-11-17 23:00:00 1.4 9 Noroeste 16 Noroeste 0 -- -- 93
2019-11-17 22:00:00 1.9 7 Oeste 14 Sudoeste 0 -- -- 92
2019-11-17 21:00:00 3 6 Oeste 15 Sudoeste 0 -- -- 93
2019-11-17 20:00:00 4 5 Norte 23 Oeste 0 -- -- 94
2019-11-17 19:00:00 5.5 12 Oeste 23 Oeste 0 -- -- 94
2019-11-17 18:00:00 6.4 14 Oeste 28 Oeste 0.2 -- -- 95
2019-11-17 17:00:00 6.6 16 Oeste 27 Oeste 0 -- -- 96
2019-11-17 16:00:00 6.2 11 Oeste 29 Oeste 0 -- -- 97
2019-11-17 15:00:00 5.8 17 Oeste 33 Oeste 0 -- -- 97
2019-11-17 14:00:00 5.5 14 Oeste 27 Sudoeste 1 -- -- 97
2019-11-17 13:00:00 4.8 12 Oeste 20 Oeste 1.8 -- -- 97
2019-11-17 12:00:00 4.1 9 Oeste 21 Sudoeste 0.8 -- -- 97
2019-11-17 11:00:00 3.5 11 Sudoeste 20 Oeste 0.8 -- -- 97
2019-11-17 10:00:00 2.8 10 Sudoeste 19 Sudoeste 0.4 -- -- 96
2019-11-17 09:00:00 2.2 4 Oeste 11 Oeste 0.2 -- -- 95
2019-11-17 08:00:00 2 6 Oeste 14 Oeste 0 -- -- 94
2019-11-17 07:00:00 1.7 6 Oeste 11 Sudoeste 0 -- -- 95
2019-11-17 06:00:00 1.1 3 Sudoeste 6 Oeste 0 -- -- 95
2019-11-17 05:00:00 0.7 2 Norte 10 Sudoeste 0 -- -- 94
2019-11-17 04:00:00 0.6 5 Oeste 8 Oeste 0 -- -- 94
2019-11-17 03:00:00 0.2 4 Oeste 12 Oeste 0 -- -- 93
2019-11-17 02:00:00 -0.2 5 Oeste 11 Oeste 0 -- -- 93
2019-11-17 01:00:00 -0.1 4 Sudoeste 12 Sudoeste 0 -- -- 91
2019-11-17 00:00:00 0.3 5 Oeste 11 Oeste 0 -- -- 89
2019-11-16 23:00:00 0.8 0 Calma 15 Sudoeste 0 -- -- 86
2019-11-16 22:00:00 1.7 8 Oeste 13 Oeste 0 -- -- 83
2019-11-16 21:00:00 2.1 8 Oeste 21 Oeste 0 -- -- 80
2019-11-16 20:00:00 3.7 12 Oeste 25 Oeste 0 -- -- 75
2019-11-16 19:00:00 4.1 10 Oeste 23 Oeste 0 -- -- 76
2019-11-16 18:00:00 4.3 13 Oeste 28 Oeste 0 -- -- 77
2019-11-16 17:00:00 4.8 18 Oeste 31 Oeste 0 -- -- 75
2019-11-16 16:00:00 5.2 14 Oeste 32 Oeste 0 -- -- 73
2019-11-16 15:00:00 4.6 18 Oeste 27 Oeste 0 -- -- 77
2019-11-16 14:00:00 3.5 14 Oeste 26 Oeste 0 -- -- 81
2019-11-16 13:00:00 3.1 8 Sudoeste 17 Sudoeste 0 -- -- 92
2019-11-16 12:00:00 1.4 9 Oeste 18 Oeste 0 -- -- 95
2019-11-16 11:00:00 0.3 10 Oeste 18 Oeste 0 -- -- 97
2019-11-16 10:00:00 -0.8 11 Sudoeste 22 Sudoeste 0 -- -- 97
2019-11-16 09:00:00 -0.7 5 Sudoeste 15 Oeste 0 -- -- 97
2019-11-16 08:00:00 -0.5 8 Oeste 17 Oeste 0 -- -- 96
2019-11-16 07:00:00 -0.3 10 Oeste 19 Oeste 0 -- -- 96
2019-11-16 06:00:00 -0.3 8 Oeste 17 Oeste 0 -- -- 96
2019-11-16 05:00:00 -0.3 7 Oeste 17 Oeste 0 -- -- 96
2019-11-16 04:00:00 -0.5 9 Oeste 18 Oeste 0 -- -- 95
2019-11-16 03:00:00 -0.3 6 Oeste 15 Oeste 0 -- -- 95
2019-11-16 02:00:00 0.1 7 Noroeste 20 Oeste 0 -- -- 94
2019-11-16 01:00:00 0.4 10 Oeste 19 Noroeste 0 -- -- 93
2019-11-16 00:00:00 1.2 13 Noroeste 22 Noroeste 0 -- -- 93
2019-11-15 23:00:00 1.5 11 Noroeste 22 Noroeste 0 -- -- 93
2019-11-15 22:00:00 1.8 12 Oeste 22 Oeste 0 -- -- 93
2019-11-15 21:00:00 2 16 Noroeste 31 Noroeste 0.6 -- -- 93
2019-11-15 20:00:00 1.5 6 Oeste 34 Oeste 0.8 -- -- 93
2019-11-15 19:00:00 2 7 Oeste 32 Oeste 0.4 -- -- 92
2019-11-15 18:00:00 3.1 13 Oeste 28 Oeste 0.6 -- -- 87
2019-11-15 17:00:00 2.9 9 Oeste 44 Noroeste 0 -- -- 85
2019-11-15 16:00:00 4.6 24 Noroeste 40 Noroeste 0 -- -- 72
2019-11-15 15:00:00 5 22 Noroeste 42 Noroeste 0 -- -- 73
2019-11-15 14:00:00 4.8 25 Oeste 42 Oeste 0 -- -- 73
2019-11-15 13:00:00 3.7 24 Oeste 39 Noroeste 0 -- -- 81
2019-11-15 12:00:00 2.4 18 Oeste 33 Oeste 0 -- -- 93
2019-11-15 11:00:00 1.5 16 Oeste 30 Oeste 0 -- -- 96
2019-11-15 10:00:00 0.9 18 Oeste 36 Oeste 0 -- -- 97
2019-11-15 09:00:00 0.6 16 Oeste 27 Oeste 0.6 -- -- 97
2019-11-15 08:00:00 0.4 13 Oeste 23 Oeste 0.2 -- -- 97
2019-11-15 07:00:00 0.6 9 Oeste 30 Oeste 0.2 -- -- 96
2019-11-15 06:00:00 1.1 14 Oeste 28 Oeste 0.2 -- -- 96
2019-11-15 05:00:00 1 12 Oeste 24 Oeste 0 -- -- 95
2019-11-15 04:00:00 1 15 Oeste 29 Oeste 0 -- -- 94
2019-11-15 03:00:00 0.9 10 Oeste 21 Oeste 0 -- -- 93
2019-11-15 02:00:00 0.7 14 Oeste 29 Oeste 0 -- -- 93
2019-11-15 01:00:00 1.2 12 Oeste 27 Noroeste 0 -- -- 92
2019-11-15 00:00:00 1.4 14 Noroeste 29 Noroeste 0 -- -- 94